Time;durP1;ratioP1;P1;durP2;ratioP2;P2;SDS_P1;SDS_P2;PMS_P1;PMS_P2;Temp;Humidity;BMP_temperature;BMP_pressure;BME280_temperature;BME280_humidity;BME280_pressure;Samples;Min_cycle;Max_cycle;Signal;HPM_P1;HPM_P2
2023/08/02 00:02:27;;;;;;;22.45;5.85;;;22.20;99.90;;;;;;5069576;28;20056;-65
2023/08/02 00:05:32;;;;;;;21.10;6.40;;;22.30;99.90;;;;;;5069651;28;20047;-64
2023/08/02 00:08:37;;;;;;;20.33;6.10;;;22.40;99.90;;;;;;5070048;28;20060;-64
2023/08/02 00:11:41;;;;;;;17.30;5.65;;;22.50;99.90;;;;;;5068799;28;20494;-64
2023/08/02 00:14:45;;;;;;;24.13;6.25;;;22.60;99.90;;;;;;5069589;28;20161;-64
2023/08/02 00:17:49;;;;;;;22.60;6.30;;;22.70;99.90;;;;;;5069913;28;20047;-64
2023/08/02 00:20:52;;;;;;;21.30;5.65;;;22.60;99.90;;;;;;5069713;28;20407;-64
2023/08/02 00:23:57;;;;;;;15.93;5.00;;;22.60;99.90;;;;;;5069570;28;20410;-64
2023/08/02 00:27:01;;;;;;;13.30;5.07;;;22.70;99.90;;;;;;5070047;28;20052;-64
2023/08/02 00:30:06;;;;;;;20.95;6.18;;;22.80;99.90;;;;;;5069361;28;20056;-64
2023/08/02 00:33:10;;;;;;;28.08;6.22;;;22.50;99.90;;;;;;5068721;28;20043;-65
2023/08/02 00:36:15;;;;;;;20.70;5.40;;;22.30;99.90;;;;;;5069881;28;20486;-65
2023/08/02 00:39:19;;;;;;;20.50;6.32;;;22.30;99.90;;;;;;5061121;28;20417;-64
2023/08/02 00:42:23;;;;;;;20.63;5.65;;;22.30;99.90;;;;;;5072597;28;20039;-65
2023/08/02 00:45:27;;;;;;;23.67;5.53;;;22.40;99.90;;;;;;5073066;28;20047;-65
2023/08/02 00:48:33;;;;;;;17.60;6.00;;;22.50;99.90;;;;;;5072484;28;20051;-64
2023/08/02 00:51:38;;;;;;;22.05;6.72;;;22.50;99.90;;;;;;5073873;28;20047;-64
2023/08/02 00:54:42;;;;;;;23.98;7.22;;;22.10;99.90;;;;;;5071548;28;20245;-65
2023/08/02 00:57:46;;;;;;;21.40;6.70;;;22.20;99.90;;;;;;5059782;28;20044;-64
2023/08/02 01:00:50;;;;;;;23.45;6.43;;;22.20;99.90;;;;;;5077237;28;20308;-64
2023/08/02 01:03:56;;;;;;;17.50;5.68;;;22.20;99.90;;;;;;5076130;28;20051;-65
2023/08/02 01:07:13;;;;;;;20.20;7.03;;;22.30;99.90;;;;;;5067175;28;20051;-64
2023/08/02 01:10:17;;;;;;;19.45;5.90;;;22.30;99.90;;;;;;5069572;28;20055;-64
2023/08/02 01:13:22;;;;;;;12.70;5.70;;;22.40;99.90;;;;;;5065198;28;20043;-65
2023/08/02 01:16:26;;;;;;;23.95;7.07;;;22.50;99.90;;;;;;5059665;28;20059;-64
2023/08/02 01:19:32;;;;;;;22.80;6.07;;;22.50;99.90;;;;;;5051896;28;20051;-64
2023/08/02 01:22:38;;;;;;;17.85;6.35;;;22.60;99.90;;;;;;5061055;28;20051;-64
2023/08/02 01:25:45;;;;;;;18.50;6.30;;;22.60;99.90;;;;;;5067719;28;20055;-64
2023/08/02 01:28:54;;;;;;;17.67;5.93;;;22.60;99.90;;;;;;5079748;28;20044;-64
2023/08/02 01:32:02;;;;;;;18.30;6.20;;;22.70;99.90;;;;;;5060212;28;20392;-65
2023/08/02 01:35:08;;;;;;;21.75;5.85;;;22.70;99.90;;;;;;5059869;28;20059;-64
2023/08/02 01:38:14;;;;;;;23.10;6.47;;;22.80;99.90;;;;;;5071082;28;20040;-64
2023/08/02 01:41:18;;;;;;;17.20;5.90;;;22.90;99.90;;;;;;5078740;28;20581;-64
2023/08/02 01:44:22;;;;;;;20.20;5.68;;;22.90;99.90;;;;;;5063779;28;20047;-64
2023/08/02 01:47:26;;;;;;;17.33;5.35;;;23.00;99.90;;;;;;5072106;28;20047;-64
2023/08/02 01:50:30;;;;;;;20.55;5.22;;;23.10;99.90;;;;;;5071609;28;20117;-64
2023/08/02 01:53:35;;;;;;;24.95;5.82;;;23.10;99.90;;;;;;5066828;28;20048;-64
2023/08/02 01:56:41;;;;;;;14.35;4.82;;;23.20;99.90;;;;;;5066299;28;20055;-64
2023/08/02 01:59:45;;;;;;;15.57;5.07;;;23.20;99.90;;;;;;5081519;28;20039;-64
2023/08/02 02:02:49;;;;;;;21.20;4.45;;;23.20;99.90;;;;;;5067654;28;20501;-65
2023/08/02 02:05:55;;;;;;;18.08;5.30;;;23.30;99.90;;;;;;5055386;28;20039;-64
2023/08/02 02:08:58;;;;;;;17.23;4.68;;;23.40;99.90;;;;;;5064687;28;20052;-65
2023/08/02 02:12:04;;;;;;;18.20;4.97;;;23.50;99.90;;;;;;5049831;28;20490;-65
2023/08/02 02:15:08;;;;;;;15.25;5.00;;;23.50;99.90;;;;;;5069468;28;20051;-65
2023/08/02 02:18:12;;;;;;;17.48;5.10;;;23.60;99.90;;;;;;5072680;28;20036;-65
2023/08/02 02:21:16;;;;;;;19.95;4.97;;;23.60;99.90;;;;;;5071600;28;20055;-65
2023/08/02 02:24:21;;;;;;;17.08;5.40;;;23.50;99.90;;;;;;5054747;28;20059;-64
2023/08/02 02:27:25;;;;;;;18.13;5.18;;;23.50;99.90;;;;;;5063664;28;20043;-65
2023/08/02 02:30:30;;;;;;;19.27;4.70;;;23.50;99.90;;;;;;5071638;28;20342;-65
2023/08/02 02:33:34;;;;;;;13.98;4.75;;;23.50;99.90;;;;;;5059690;28;20039;-65
2023/08/02 02:36:39;;;;;;;19.48;4.53;;;23.50;99.90;;;;;;5051442;28;20036;-64
2023/08/02 02:39:43;;;;;;;26.90;5.15;;;23.50;99.90;;;;;;5051061;28;20032;-65
2023/08/02 02:42:47;;;;;;;16.50;4.95;;;23.50;99.90;;;;;;5050689;28;20043;-64
2023/08/02 02:45:52;;;;;;;16.98;5.55;;;23.50;99.90;;;;;;5059878;28;20502;-65
2023/08/02 02:48:57;;;;;;;12.93;5.15;;;23.10;99.90;;;;;;5068886;28;20047;-65
2023/08/02 02:52:01;;;;;;;14.35;5.13;;;22.70;99.90;;;;;;5061801;28;20067;-64
2023/08/02 02:55:09;;;;;;;26.63;5.75;;;22.60;99.90;;;;;;5069832;28;20044;-64
2023/08/02 02:58:13;;;;;;;15.55;5.30;;;22.50;99.90;;;;;;5076346;28;20489;-64
2023/08/02 03:01:17;;;;;;;29.05;5.82;;;22.50;99.90;;;;;;5078092;28;20031;-64
2023/08/02 03:04:21;;;;;;;19.48;4.15;;;22.50;99.90;;;;;;5061925;28;20047;-65
2023/08/02 03:07:25;;;;;;;18.40;5.05;;;22.50;99.90;;;;;;5070762;28;20048;-64
2023/08/02 03:10:30;;;;;;;19.02;5.15;;;22.50;99.90;;;;;;5050945;28;20040;-65
2023/08/02 03:13:35;;;;;;;23.17;4.47;;;22.30;99.90;;;;;;5049726;28;20044;-64
2023/08/02 03:16:43;;;;;;;16.20;4.53;;;22.10;99.90;;;;;;5051067;28;20048;-64
2023/08/02 03:19:47;;;;;;;18.98;6.20;;;22.00;99.90;;;;;;5050756;28;20388;-64
2023/08/02 03:22:51;;;;;;;13.10;5.57;;;21.70;99.90;;;;;;5049985;28;20183;-65
2023/08/02 03:25:55;;;;;;;17.75;5.95;;;21.50;99.90;;;;;;5057926;28;20405;-64
2023/08/02 03:28:59;;;;;;;20.42;6.05;;;21.30;99.90;;;;;;5059209;28;20047;-64
2023/08/02 03:32:04;;;;;;;16.63;5.75;;;21.30;99.90;;;;;;5069706;28;20044;-64
2023/08/02 03:35:09;;;;;;;19.27;6.10;;;21.20;99.90;;;;;;5070467;28;20391;-64
2023/08/02 03:38:13;;;;;;;30.60;7.63;;;21.10;99.90;;;;;;5070330;28;20047;-64
2023/08/02 03:41:17;;;;;;;15.05;5.65;;;21.10;99.90;;;;;;5070410;28;20048;-64
2023/08/02 03:44:21;;;;;;;21.88;6.95;;;21.00;99.90;;;;;;5070510;28;20498;-64
2023/08/02 03:47:25;;;;;;;19.60;5.82;;;20.90;99.90;;;;;;5070505;28;20051;-64
2023/08/02 03:50:29;;;;;;;19.95;6.95;;;20.80;99.90;;;;;;5070313;28;20051;-64
2023/08/02 03:53:34;;;;;;;14.68;5.95;;;20.80;99.90;;;;;;5069804;28;20498;-64
2023/08/02 03:56:37;;;;;;;13.38;5.15;;;20.90;99.90;;;;;;5070027;28;20502;-64
2023/08/02 03:59:42;;;;;;;20.67;6.85;;;20.90;99.90;;;;;;5070216;28;20514;-64
2023/08/02 04:02:47;;;;;;;18.20;5.93;;;20.80;99.90;;;;;;5069302;28;20391;-65
2023/08/02 04:05:51;;;;;;;18.63;6.28;;;20.80;99.90;;;;;;5069873;28;20498;-64
2023/08/02 04:08:56;;;;;;;23.23;6.47;;;20.80;99.90;;;;;;5069643;28;20067;-64
2023/08/02 04:12:00;;;;;;;20.35;6.22;;;20.80;99.90;;;;;;5070368;28;20044;-63
2023/08/02 04:15:05;;;;;;;17.20;5.35;;;20.90;99.90;;;;;;5073742;28;20529;-63
2023/08/02 04:18:10;;;;;;;19.10;5.57;;;21.00;99.90;;;;;;5073883;28;20051;-65
2023/08/02 04:21:19;;;;;;;16.83;5.30;;;21.10;99.90;;;;;;5073150;28;20505;-64
2023/08/02 04:24:23;;;;;;;19.55;5.28;;;21.10;99.90;;;;;;5073594;28;20044;-64
2023/08/02 04:27:29;;;;;;;20.27;5.93;;;21.30;99.90;;;;;;5073718;28;20043;-65
2023/08/02 04:30:34;;;;;;;23.13;5.47;;;21.50;99.90;;;;;;5072703;28;20047;-64
2023/08/02 04:33:39;;;;;;;18.60;5.88;;;21.70;99.90;;;;;;5073637;28;20494;-65
2023/08/02 04:36:44;;;;;;;19.17;5.18;;;21.70;99.90;;;;;;5074008;28;20411;-64
2023/08/02 04:39:48;;;;;;;15.45;4.85;;;21.80;99.90;;;;;;5080293;28;20051;-64
2023/08/02 04:42:53;;;;;;;30.90;5.97;;;22.00;99.90;;;;;;5069233;28;20055;-64
2023/08/02 04:45:58;;;;;;;19.38;5.35;;;22.10;99.90;;;;;;5073600;28;20043;-65
2023/08/02 04:49:03;;;;;;;22.38;5.47;;;22.30;99.90;;;;;;5073383;28;20047;-64
2023/08/02 04:52:07;;;;;;;23.38;4.97;;;22.40;99.90;;;;;;5071829;28;20056;-64
2023/08/02 04:55:12;;;;;;;24.98;4.95;;;22.60;99.90;;;;;;5073340;28;20052;-64
2023/08/02 04:58:16;;;;;;;18.52;4.95;;;22.80;99.90;;;;;;5072485;28;20683;-65
2023/08/02 05:01:20;;;;;;;14.15;4.22;;;23.10;99.90;;;;;;5072970;28;20040;-65
2023/08/02 05:04:26;;;;;;;20.13;5.20;;;23.30;99.90;;;;;;5078816;28;20043;-64
2023/08/02 05:07:35;;;;;;;20.52;6.03;;;23.50;99.90;;;;;;5073563;28;20063;-64
2023/08/02 05:10:39;;;;;;;15.73;7.15;;;22.70;99.90;;;;;;5073084;28;20306;-64
2023/08/02 05:13:43;;;;;;;21.40;6.88;;;21.90;99.90;;;;;;5072739;28;20048;-64
2023/08/02 05:16:47;;;;;;;19.10;6.18;;;21.70;99.90;;;;;;5072875;28;20055;-64
2023/08/02 05:19:52;;;;;;;21.67;6.78;;;21.40;99.90;;;;;;5075318;28;20048;-64
2023/08/02 05:22:56;;;;;;;18.75;6.47;;;21.30;99.90;;;;;;5052210;28;20052;-65
2023/08/02 05:26:06;;;;;;;19.33;6.80;;;21.50;99.90;;;;;;5053244;28;20044;-64
2023/08/02 05:29:10;;;;;;;17.00;6.13;;;21.50;99.90;;;;;;5053623;28;20044;-64
2023/08/02 05:32:14;;;;;;;18.10;5.88;;;21.90;99.90;;;;;;5052413;28;20060;-64
2023/08/02 05:35:21;;;;;;;18.25;6.50;;;22.10;99.90;;;;;;5050105;28;20044;-64
2023/08/02 05:38:26;;;;;;;17.70;5.68;;;22.20;99.90;;;;;;5053327;28;20387;-64
2023/08/02 05:41:30;;;;;;;21.00;6.38;;;22.30;99.90;;;;;;5052430;28;20052;-64
2023/08/02 05:44:36;;;;;;;19.17;5.75;;;22.40;99.90;;;;;;5071833;28;20044;-64
2023/08/02 05:47:41;;;;;;;18.80;5.90;;;22.50;99.90;;;;;;5053136;28;20060;-65
2023/08/02 05:50:46;;;;;;;16.35;5.60;;;22.60;99.90;;;;;;5053022;28;20955;-64
2023/08/02 05:53:50;;;;;;;21.85;6.85;;;24.20;99.90;;;;;;5053088;28;20052;-64
2023/08/02 05:56:54;;;;;;;22.70;6.60;;;23.50;99.90;;;;;;5052901;28;20044;-64
2023/08/02 05:59:58;;;;;;;15.98;5.47;;;23.50;99.90;;;;;;5060701;28;20032;-64
2023/08/02 06:03:03;;;;;;;18.42;5.75;;;24.90;99.90;;;;;;5050217;28;20043;-65
2023/08/02 06:06:07;;;;;;;18.70;6.15;;;25.90;99.90;;;;;;5062928;28;20036;-65
2023/08/02 06:09:13;;;;;;;15.00;5.93;;;27.00;99.90;;;;;;5079868;28;20055;-65
2023/08/02 06:12:17;;;;;;;20.35;6.88;;;28.30;99.90;;;;;;5062352;28;20048;-65
2023/08/02 06:15:23;;;;;;;17.00;6.20;;;28.40;99.90;;;;;;5071807;28;20040;-64
2023/08/02 06:18:29;;;;;;;17.33;5.20;;;28.90;99.90;;;;;;5063938;28;20043;-65
2023/08/02 06:21:34;;;;;;;14.45;5.93;;;29.90;99.90;;;;;;5046229;28;20059;-65
2023/08/02 06:24:42;;;;;;;15.57;6.15;;;30.20;99.90;;;;;;5059663;28;20541;-65
2023/08/02 06:27:47;;;;;;;16.55;5.40;;;27.90;99.90;;;;;;5066000;28;20036;-64
2023/08/02 06:30:52;;;;;;;19.55;5.93;;;27.90;99.90;;;;;;5061448;28;20048;-65
2023/08/02 06:33:56;;;;;;;16.85;5.85;;;26.60;99.90;;;;;;5060623;28;20490;-64
2023/08/02 06:37:00;;;;;;;17.58;6.07;;;26.80;99.90;;;;;;5064964;28;20040;-64
2023/08/02 06:40:05;;;;;;;17.30;5.78;;;26.50;99.90;;;;;;5078061;28;20043;-64
2023/08/02 06:43:12;;;;;;;18.67;6.35;;;26.00;99.90;;;;;;5067811;28;20047;-64
2023/08/02 06:46:16;;;;;;;21.08;7.65;;;25.80;99.90;;;;;;5063643;28;20127;-64
2023/08/02 06:49:20;;;;;;;17.85;6.53;;;25.60;99.90;;;;;;5040283;28;20063;-64
2023/08/02 06:52:25;;;;;;;15.50;6.32;;;24.90;99.90;;;;;;5059109;28;20051;-64
2023/08/02 06:55:29;;;;;;;18.80;7.10;;;24.80;99.90;;;;;;5051748;28;20044;-64
2023/08/02 06:58:33;;;;;;;18.20;6.50;;;25.00;99.90;;;;;;5062534;28;20044;-64
2023/08/02 07:01:37;;;;;;;26.02;7.18;;;24.80;99.90;;;;;;5074364;28;20510;-65
2023/08/02 07:04:41;;;;;;;18.70;6.88;;;25.10;99.90;;;;;;5054365;28;20044;-65
2023/08/02 07:07:45;;;;;;;20.95;6.45;;;25.10;99.90;;;;;;5060436;28;20052;-65
2023/08/02 07:10:49;;;;;;;21.45;7.13;;;25.30;99.90;;;;;;5063869;28;20048;-65
2023/08/02 07:13:53;;;;;;;20.27;6.53;;;26.40;99.90;;;;;;5056935;28;20052;-65
2023/08/02 07:16:57;;;;;;;24.25;7.30;;;26.90;99.90;;;;;;5063560;28;20056;-64
2023/08/02 07:20:02;;;;;;;24.95;7.13;;;27.10;99.90;;;;;;5071525;28;20367;-65
2023/08/02 07:23:07;;;;;;;27.38;7.40;;;26.90;99.90;;;;;;5065876;28;20051;-64
2023/08/02 07:26:11;;;;;;;30.17;7.45;;;28.20;99.90;;;;;;5068053;28;20059;-64
2023/08/02 07:29:16;;;;;;;23.65;6.35;;;30.10;99.90;;;;;;5069571;28;20415;-65
2023/08/02 07:32:21;;;;;;;20.13;6.72;;;30.90;99.90;;;;;;5057322;28;20060;-65
2023/08/02 07:35:24;;;;;;;23.95;7.05;;;29.50;99.90;;;;;;5052442;28;20067;-65
2023/08/02 07:38:28;;;;;;;22.80;7.13;;;28.20;99.90;;;;;;5055288;28;20048;-65
2023/08/02 07:41:32;;;;;;;18.60;6.88;;;27.70;99.90;;;;;;5052070;28;20048;-65
2023/08/02 07:44:37;;;;;;;16.92;6.72;;;27.60;99.90;;;;;;5067000;28;20401;-66
2023/08/02 07:47:42;;;;;;;18.17;6.53;;;27.80;99.90;;;;;;5062953;28;20044;-66
2023/08/02 07:50:46;;;;;;;21.80;8.05;;;27.90;99.90;;;;;;5062312;28;20048;-66
2023/08/02 07:53:50;;;;;;;22.55;7.18;;;27.70;99.90;;;;;;5050515;28;20056;-66
2023/08/02 07:56:55;;;;;;;21.23;7.45;;;27.30;99.90;;;;;;5049921;28;20051;-66
2023/08/02 07:59:59;;;;;;;17.58;7.40;;;27.20;99.90;;;;;;5064255;28;20028;-65
2023/08/02 08:03:03;;;;;;;21.70;7.22;;;27.10;99.90;;;;;;5060568;28;20040;-66
2023/08/02 08:06:16;;;;;;;18.42;6.80;;;27.00;99.90;;;;;;5054078;28;20384;-66
2023/08/02 08:09:24;;;;;;;18.58;6.57;;;27.00;99.90;;;;;;5062981;28;20043;-66
2023/08/02 08:12:28;;;;;;;26.25;7.95;;;27.10;99.90;;;;;;5066014;28;20116;-66
2023/08/02 08:15:32;;;;;;;27.58;7.88;;;27.40;99.90;;;;;;5060484;28;20475;-66
2023/08/02 08:18:36;;;;;;;25.17;7.50;;;27.90;99.90;;;;;;5053649;28;20039;-66
2023/08/02 08:21:40;;;;;;;21.25;6.57;;;28.50;99.90;;;;;;5063114;28;20063;-65
2023/08/02 08:24:44;;;;;;;23.13;6.35;;;29.20;99.90;;;;;;5069615;28;20395;-66
2023/08/02 08:27:49;;;;;;;21.00;5.88;;;30.00;99.90;;;;;;5050250;28;20048;-66
2023/08/02 08:31:03;;;;;;;19.25;5.78;;;30.50;99.90;;;;;;5069594;28;20044;-66
2023/08/02 08:34:07;;;;;;;22.13;6.55;;;30.80;99.90;;;;;;5058900;28;20124;-65
2023/08/02 08:37:11;;;;;;;17.05;5.90;;;30.80;99.90;;;;;;5064907;28;20051;-66
2023/08/02 08:40:18;;;;;;;16.15;5.55;;;30.60;99.90;;;;;;5067139;28;20059;-65
2023/08/02 08:43:26;;;;;;;18.98;5.93;;;30.90;99.90;;;;;;5068281;28;20514;-65
2023/08/02 08:46:33;;;;;;;13.55;4.45;;;34.10;99.90;;;;;;5068135;28;20077;-66
2023/08/02 08:49:40;;;;;;;18.63;4.40;;;38.00;96.00;;;;;;5060638;28;20068;-66
2023/08/02 08:52:46;;;;;;;13.05;4.43;;;40.60;91.80;;;;;;5069575;28;20048;-64
2023/08/02 08:55:51;;;;;;;27.98;4.88;;;41.10;90.20;;;;;;5058918;28;20148;-65
2023/08/02 08:58:59;;;;;;;9.38;3.35;;;42.10;88.70;;;;;;5063692;28;20490;-63
2023/08/02 09:02:05;;;;;;;;;;;43.10;85.90;;;;;;5069882;28;20052;-65
2023/08/02 09:05:11;;;;;;;16.58;3.67;;;44.80;81.70;;;;;;5064716;28;19908;-65
2023/08/02 09:08:15;;;;;;;14.75;4.13;;;45.20;77.90;;;;;;5057952;28;20052;-65
2023/08/02 09:11:19;;;;;;;15.57;4.10;;;43.10;79.20;;;;;;5071444;28;20040;-63
2023/08/02 09:14:25;;;;;;;14.80;4.20;;;41.30;81.70;;;;;;5067653;28;20083;-64
2023/08/02 09:17:52;;;;;;;13.15;3.47;;;41.10;82.30;;;;;;5067869;28;20514;-65
2023/08/02 09:20:58;;;;;;;8.02;3.47;;;42.40;80.10;;;;;;5064984;28;20060;-64
2023/08/02 09:24:04;;;;;;;10.35;3.75;;;44.30;79.10;;;;;;5060847;28;20043;-65
2023/08/02 09:27:17;;;;;;;13.18;3.55;;;46.00;76.70;;;;;;5070705;28;20036;-64
2023/08/02 09:30:24;;;;;;;13.35;3.95;;;43.50;75.70;;;;;;5064439;28;20051;-66
2023/08/02 09:33:37;;;;;;;14.00;4.65;;;37.40;81.40;;;;;;5063358;28;20043;-64
2023/08/02 09:36:41;;;;;;;11.82;4.47;;;35.80;87.60;;;;;;5064616;28;20035;-65
2023/08/02 09:39:51;;;;;;;12.32;4.03;;;39.10;84.00;;;;;;5066802;28;20055;-67
2023/08/02 09:42:57;;;;;;;13.60;4.13;;;40.30;81.30;;;;;;5063979;28;20044;-64
2023/08/02 09:46:01;;;;;;;12.57;4.20;;;42.00;80.50;;;;;;5064390;28;20048;-64
2023/08/02 09:49:19;;;;;;;13.10;4.20;;;39.00;80.30;;;;;;5068454;28;20052;-65
2023/08/02 09:52:26;;;;;;;11.32;4.40;;;36.00;87.10;;;;;;5059823;28;20043;-65
2023/08/02 09:55:31;;;;;;;12.48;4.63;;;37.70;84.40;;;;;;5067761;28;20040;-66
2023/08/02 09:58:39;;;;;;;13.80;4.43;;;36.20;86.40;;;;;;5069319;28;20039;-66
2023/08/02 10:01:47;;;;;;;17.00;4.15;;;38.00;84.90;;;;;;5069300;28;20056;-65
2023/08/02 10:04:59;;;;;;;11.18;3.85;;;39.60;83.90;;;;;;5064560;28;20051;-65
2023/08/02 10:08:05;;;;;;;14.55;4.25;;;40.10;82.20;;;;;;5071914;28;20047;-66
2023/08/02 10:11:10;;;;;;;11.60;4.45;;;40.10;82.50;;;;;;5081742;28;20047;-65
2023/08/02 10:14:15;;;;;;;14.63;4.82;;;39.10;82.80;;;;;;5071553;28;20043;-65
2023/08/02 10:17:20;;;;;;;11.77;4.10;;;38.30;84.30;;;;;;5070307;28;20048;-65
2023/08/02 10:20:25;;;;;;;12.75;4.30;;;37.80;84.20;;;;;;5053145;28;20047;-65
2023/08/02 10:23:29;;;;;;;11.73;4.25;;;37.90;84.10;;;;;;5075695;28;20051;-66
2023/08/02 10:26:34;;;;;;;13.60;3.75;;;37.80;82.80;;;;;;5064263;28;20044;-66
2023/08/02 10:29:40;;;;;;;12.40;3.70;;;38.30;83.40;;;;;;5065613;28;20052;-65
2023/08/02 10:33:04;;;;;;;10.98;3.92;;;40.90;79.80;;;;;;5067287;28;20044;-65
2023/08/02 10:36:09;;;;;;;16.00;4.97;;;42.90;77.60;;;;;;5068301;28;20068;-65
2023/08/02 10:39:14;;;;;;;13.77;4.13;;;41.90;76.30;;;;;;5072967;28;20051;-64
2023/08/02 10:42:29;;;;;;;8.50;3.35;;;40.30;77.40;;;;;;5062045;28;20067;-66
2023/08/02 10:45:33;;;;;;;12.20;3.70;;;39.80;79.80;;;;;;5068359;28;20149;-64
2023/08/02 10:48:37;;;;;;;11.18;3.95;;;39.60;80.70;;;;;;5051227;28;20376;-65
2023/08/02 10:51:44;;;;;;;11.48;4.05;;;39.60;81.50;;;;;;5059794;28;20533;-65
2023/08/02 10:55:15;;;;;;;11.10;3.85;;;41.10;80.30;;;;;;5062145;28;20059;-65
2023/08/02 10:58:19;;;;;;;10.63;3.88;;;43.10;77.70;;;;;;5067351;28;20044;-65
2023/08/02 11:01:24;;;;;;;7.45;3.60;;;42.30;77.70;;;;;;5066255;28;20391;-64
2023/08/02 11:04:30;;;;;;;11.68;4.25;;;40.60;78.50;;;;;;5073093;28;20505;-65
2023/08/02 11:07:35;;;;;;;13.20;4.20;;;39.50;79.70;;;;;;5065122;28;20044;-65
2023/08/02 11:10:50;;;;;;;11.32;3.80;;;38.70;80.80;;;;;;5064801;28;20501;-64
2023/08/02 11:13:55;;;;;;;12.88;4.20;;;38.00;81.20;;;;;;5069979;28;20035;-65
2023/08/02 11:17:00;;;;;;;12.63;4.28;;;37.50;82.70;;;;;;5063559;28;20399;-65
2023/08/02 11:20:05;;;;;;;13.10;4.25;;;37.60;83.10;;;;;;5058828;28;21068;-64
2023/08/02 11:23:25;;;;;;;14.45;4.35;;;37.50;80.60;;;;;;5063407;28;20047;-64
2023/08/02 11:26:30;;;;;;;10.15;3.63;;;37.60;82.10;;;;;;5063149;28;20051;-65
2023/08/02 11:29:35;;;;;;;12.23;3.65;;;38.00;81.70;;;;;;5072668;28;20043;-64
2023/08/02 11:32:43;;;;;;;10.77;3.75;;;39.90;79.30;;;;;;5061843;28;20379;-65
2023/08/02 11:35:52;;;;;;;12.18;3.60;;;41.10;78.70;;;;;;5063188;28;20060;-65
2023/08/02 11:38:56;;;;;;;10.82;4.10;;;43.20;77.30;;;;;;5061703;28;20040;-62
2023/08/02 11:42:02;;;;;;;14.80;4.35;;;45.00;74.50;;;;;;5070138;28;20048;-64
2023/08/02 11:45:08;;;;;;;8.95;3.90;;;44.80;72.70;;;;;;5068250;28;20036;-65
2023/08/02 11:48:30;;;;;;;13.40;3.55;;;43.90;74.60;;;;;;5069988;28;20391;-65
2023/08/02 11:51:41;;;;;;;11.02;3.55;;;40.80;74.40;;;;;;5060236;28;20036;-64
2023/08/02 11:54:46;;;;;;;10.32;4.15;;;38.20;77.50;;;;;;5062677;28;20047;-64
2023/08/02 11:57:51;;;;;;;14.65;3.90;;;37.20;81.10;;;;;;5061971;28;20040;-64
2023/08/02 12:00:56;;;;;;;9.60;4.00;;;37.00;81.70;;;;;;5052499;28;20040;-65
2023/08/02 12:04:05;;;;;;;9.63;3.80;;;36.60;81.90;;;;;;5066017;28;20051;-64
2023/08/02 12:07:11;;;;;;;11.10;4.03;;;36.50;82.90;;;;;;5068423;28;20546;-65
2023/08/02 12:10:28;;;;;;;13.18;3.65;;;36.90;82.30;;;;;;5071538;28;20039;-65
2023/08/02 12:13:33;;;;;;;13.43;4.40;;;37.40;81.20;;;;;;5062408;28;20051;-65
2023/08/02 12:16:42;;;;;;;9.95;4.07;;;38.80;80.70;;;;;;5063100;28;20518;-65
2023/08/02 12:19:47;;;;;;;10.57;4.13;;;39.90;78.40;;;;;;5062440;28;20043;-65
2023/08/02 12:22:52;;;;;;;12.98;3.58;;;38.80;79.10;;;;;;5065320;28;20047;-66
2023/08/02 12:25:56;;;;;;;11.80;3.92;;;39.70;78.90;;;;;;5066669;28;20400;-65
2023/08/02 12:29:03;;;;;;;12.15;4.00;;;40.50;77.80;;;;;;5071034;28;20494;-64
2023/08/02 12:32:08;;;;;;;14.32;4.30;;;37.10;78.80;;;;;;5067212;28;20051;-64
2023/08/02 12:35:13;;;;;;;12.82;3.90;;;36.20;82.80;;;;;;5085322;28;20382;-65
2023/08/02 12:38:17;;;;;;;9.82;4.07;;;37.50;81.50;;;;;;5093898;28;20039;-64
2023/08/02 12:41:21;;;;;;;10.07;3.58;;;37.80;79.90;;;;;;5053410;28;20048;-65
2023/08/02 12:44:25;;;;;;;9.25;3.28;;;37.80;79.80;;;;;;5065395;28;20044;-64
2023/08/02 12:47:30;;;;;;;8.20;3.58;;;37.70;81.20;;;;;;5062009;28;20391;-65
2023/08/02 12:50:34;;;;;;;12.32;3.92;;;37.20;81.30;;;;;;5074210;28;20052;-65
2023/08/02 12:53:38;;;;;;;12.35;4.90;;;37.20;81.60;;;;;;5068051;28;20048;-64
2023/08/02 12:56:43;;;;;;;13.82;3.88;;;37.70;81.70;;;;;;5073604;28;20039;-65
2023/08/02 12:59:47;;;;;;;9.90;3.70;;;37.60;82.40;;;;;;5073517;28;20051;-65
2023/08/02 13:02:52;;;;;;;8.70;3.63;;;38.00;81.40;;;;;;5054112;28;20060;-65
2023/08/02 13:05:56;;;;;;;8.73;3.80;;;38.90;79.60;;;;;;5059145;28;20027;-65
2023/08/02 13:09:00;;;;;;;10.60;3.53;;;39.60;79.10;;;;;;5078511;28;20398;-65
2023/08/02 13:12:07;;;;;;;9.10;4.47;;;39.10;79.00;;;;;;5080696;28;20059;-65
2023/08/02 13:15:11;;;;;;;9.10;3.95;;;38.60;79.20;;;;;;5071352;28;20047;-65
2023/08/02 13:18:15;;;;;;;10.82;3.75;;;38.00;80.20;;;;;;5071946;28;20040;-65
2023/08/02 13:21:19;;;;;;;12.10;3.72;;;37.40;81.40;;;;;;5083530;28;20055;-65
2023/08/02 13:24:23;;;;;;;9.30;3.60;;;37.00;82.60;;;;;;5073082;28;20050;-65
2023/08/02 13:27:27;;;;;;;11.85;4.07;;;36.70;83.30;;;;;;5076781;28;20051;-65
2023/08/02 13:30:33;;;;;;;9.93;3.88;;;36.70;83.10;;;;;;5072571;28;20059;-65
2023/08/02 13:33:41;;;;;;;12.15;3.83;;;36.70;83.20;;;;;;5076220;28;20054;-64
2023/08/02 13:36:49;;;;;;;10.93;4.88;;;36.60;82.80;;;;;;5058986;28;20059;-65
2023/08/02 13:39:55;;;;;;;13.10;4.25;;;36.40;83.20;;;;;;5072450;28;20055;-65
2023/08/02 13:43:00;;;;;;;17.02;4.43;;;36.20;83.20;;;;;;5066011;28;20399;-64
2023/08/02 13:46:05;;;;;;;10.52;4.30;;;35.90;83.30;;;;;;5070214;28;20059;-65
2023/08/02 13:49:10;;;;;;;9.23;3.97;;;35.80;82.90;;;;;;5064415;28;20054;-66
2023/08/02 13:52:15;;;;;;;12.15;3.90;;;35.80;83.30;;;;;;5075411;28;20039;-64
2023/08/02 13:55:20;;;;;;;13.93;4.88;;;35.80;84.00;;;;;;5072835;28;20055;-66
2023/08/02 13:58:24;;;;;;;15.48;4.10;;;36.10;83.80;;;;;;5071749;28;20043;-65
2023/08/02 14:01:29;;;;;;;14.32;4.93;;;36.40;83.10;;;;;;5067680;28;20398;-65
2023/08/02 14:04:34;;;;;;;10.20;3.70;;;36.70;83.50;;;;;;5072281;28;20043;-65
2023/08/02 14:07:38;;;;;;;12.07;3.90;;;36.40;83.70;;;;;;5071614;28;20044;-64
2023/08/02 14:10:46;;;;;;;11.65;4.82;;;35.80;85.30;;;;;;5067679;28;20511;-65
2023/08/02 14:13:50;;;;;;;12.52;4.05;;;35.50;85.10;;;;;;5067397;28;20055;-65
2023/08/02 14:16:55;;;;;;;14.48;4.70;;;35.00;85.30;;;;;;5071434;28;20183;-65
2023/08/02 14:19:59;;;;;;;10.45;4.60;;;34.80;84.70;;;;;;5066639;28;20039;-64
2023/08/02 14:23:04;;;;;;;10.85;3.83;;;34.00;85.90;;;;;;5062501;28;20578;-64
2023/08/02 14:26:08;;;;;;;8.88;4.03;;;34.50;86.70;;;;;;5080864;28;20126;-65
2023/08/02 14:29:14;;;;;;;10.82;4.50;;;34.60;84.90;;;;;;5091795;28;20438;-65
2023/08/02 14:32:18;;;;;;;9.57;4.25;;;34.80;86.30;;;;;;5091314;28;20498;-65
2023/08/02 14:35:22;;;;;;;12.00;4.45;;;34.90;86.80;;;;;;5091773;28;20386;-65
2023/08/02 14:38:27;;;;;;;8.23;4.15;;;34.80;86.40;;;;;;5091705;28;20047;-65
2023/08/02 14:41:31;;;;;;;10.45;4.60;;;34.70;86.90;;;;;;5091022;28;20039;-64
2023/08/02 14:44:37;;;;;;;10.63;4.32;;;34.60;86.90;;;;;;5091090;28;20039;-64
2023/08/02 14:47:42;;;;;;;17.52;4.88;;;34.30;87.90;;;;;;5091441;28;20047;-65
2023/08/02 14:50:46;;;;;;;12.23;4.30;;;33.90;87.30;;;;;;5091346;28;20054;-65
2023/08/02 14:53:52;;;;;;;21.35;4.25;;;34.00;88.60;;;;;;5090679;28;20039;-65
2023/08/02 14:56:56;;;;;;;17.42;4.60;;;33.50;89.50;;;;;;5090877;28;20047;-65
2023/08/02 15:00:04;;;;;;;10.77;4.63;;;33.70;90.20;;;;;;5091067;28;20039;-65
2023/08/02 15:03:10;;;;;;;14.70;4.95;;;34.00;89.50;;;;;;5090224;28;20485;-65
2023/08/02 15:06:15;;;;;;;11.45;4.20;;;34.20;89.60;;;;;;5091024;28;20047;-65
2023/08/02 15:09:22;;;;;;;10.65;4.28;;;33.80;88.80;;;;;;5090542;28;20047;-66
2023/08/02 15:12:26;;;;;;;19.23;4.80;;;33.80;88.30;;;;;;5090399;28;20418;-65
2023/08/02 15:15:33;;;;;;;15.75;4.65;;;33.40;88.80;;;;;;5091062;28;20054;-65
2023/08/02 15:18:37;;;;;;;12.23;4.38;;;33.10;90.10;;;;;;5091177;28;20394;-64
2023/08/02 15:21:42;;;;;;;8.57;4.57;;;32.80;90.20;;;;;;5090311;28;20063;-66
2023/08/02 15:24:46;;;;;;;10.77;4.50;;;32.40;90.70;;;;;;5090375;28;20501;-66
2023/08/02 15:27:50;;;;;;;13.40;4.25;;;32.20;90.90;;;;;;5091292;28;20063;-65
2023/08/02 15:30:55;;;;;;;10.82;4.32;;;32.00;91.00;;;;;;5079404;28;20043;-66
2023/08/02 15:33:59;;;;;;;12.13;4.60;;;31.90;91.10;;;;;;5090146;28;20042;-65
2023/08/02 15:37:03;;;;;;;18.70;5.03;;;31.80;91.50;;;;;;5078572;28;20047;-65
2023/08/02 15:40:08;;;;;;;15.70;4.22;;;31.90;91.80;;;;;;5090397;28;20039;-65
2023/08/02 15:43:12;;;;;;;13.50;4.55;;;32.20;92.00;;;;;;5090155;28;20055;-65
2023/08/02 15:46:18;;;;;;;15.32;5.35;;;32.30;91.60;;;;;;5090597;28;20047;-65
2023/08/02 15:49:22;;;;;;;11.88;4.22;;;32.30;91.70;;;;;;5090278;28;20513;-65
2023/08/02 15:52:27;;;;;;;12.10;5.05;;;32.30;91.40;;;;;;5089613;28;20411;-65
2023/08/02 15:55:31;;;;;;;10.18;4.70;;;32.00;91.80;;;;;;5090709;28;20050;-66